Time;durP1;ratioP1;P1;durP2;ratioP2;P2;SDS_P1;SDS_P2;PMS_P1;PMS_P2;Temp;Humidity;BMP_temperature;BMP_pressure;BME280_temperature;BME280_humidity;BME280_pressure;Samples;Min_cycle;Max_cycle;Signal;HPM_P1;HPM_P2
2022/04/12 00:00:05;;;;;;;23.27;21.38;;;7.80;99.90;;;;;;4995569;28;20149;-68
2022/04/12 00:02:37;;;;;;;23.90;21.70;;;7.70;99.90;;;;;;4994761;28;20761;-69
2022/04/12 00:05:05;;;;;;;24.30;22.20;;;7.70;99.90;;;;;;4982351;28;20113;-69
2022/04/12 00:07:52;;;;;;;23.92;21.75;;;7.60;99.90;;;;;;4981246;28;20061;-69
2022/04/12 00:10:18;;;;;;;23.88;21.90;;;7.70;99.90;;;;;;4980765;28;20157;-68
2022/04/12 00:12:46;;;;;;;23.65;21.73;;;7.70;99.90;;;;;;4983290;28;20144;-69
2022/04/12 00:15:12;;;;;;;24.90;22.80;;;7.60;99.90;;;;;;4964408;28;20046;-68
2022/04/12 00:20:29;;;;;;;24.50;22.20;;;7.50;99.90;;;;;;4981373;28;20360;-68
2022/04/12 00:22:57;;;;;;;24.85;22.65;;;7.60;99.90;;;;;;4980286;28;20046;-68
2022/04/12 00:25:24;;;;;;;23.85;21.95;;;7.60;99.90;;;;;;4981528;28;20058;-68
2022/04/12 00:27:54;;;;;;;24.48;22.33;;;7.60;99.90;;;;;;4997627;28;20045;-68
2022/04/12 00:30:22;;;;;;;25.35;23.05;;;7.50;99.90;;;;;;5001044;28;20546;-68
2022/04/12 00:32:50;;;;;;;24.40;22.50;;;7.50;99.90;;;;;;4993085;28;20054;-68
2022/04/12 00:35:20;;;;;;;26.08;23.55;;;7.50;99.90;;;;;;4981575;28;20149;-69
2022/04/12 00:37:47;;;;;;;25.15;23.02;;;7.50;99.90;;;;;;4981992;28;20251;-68
2022/04/12 00:40:17;;;;;;;24.35;22.35;;;7.60;99.90;;;;;;4980040;28;20277;-68
2022/04/12 00:42:45;;;;;;;25.20;23.27;;;7.60;99.90;;;;;;4983355;28;20550;-69
2022/04/12 00:45:12;;;;;;;26.77;24.20;;;7.60;99.90;;;;;;4980153;28;20149;-68
2022/04/12 00:47:39;;;;;;;25.92;23.60;;;7.50;99.90;;;;;;4979307;28;20461;-69
2022/04/12 00:50:09;;;;;;;26.67;24.23;;;7.60;99.90;;;;;;4994167;28;20306;-69
2022/04/12 00:52:42;;;;;;;26.33;23.88;;;7.50;99.90;;;;;;4983634;28;20375;-68
2022/04/12 00:55:10;;;;;;;24.88;22.77;;;7.50;99.90;;;;;;4981908;28;20050;-68
2022/04/12 00:57:37;;;;;;;25.42;23.13;;;7.50;99.90;;;;;;4992704;28;20715;-68
2022/04/12 01:00:07;;;;;;;25.02;22.85;;;7.50;99.90;;;;;;5001804;28;20074;-68
2022/04/12 01:02:36;;;;;;;26.23;23.63;;;7.60;99.90;;;;;;4998843;28;20081;-68
2022/04/12 01:05:04;;;;;;;24.77;22.48;;;7.50;99.90;;;;;;4981762;28;20043;-68
2022/04/12 01:07:32;;;;;;;26.45;23.65;;;7.50;99.90;;;;;;4990739;28;20082;-68
2022/04/12 01:09:59;;;;;;;26.08;23.48;;;7.50;99.90;;;;;;4985603;28;20121;-68
2022/04/12 01:12:30;;;;;;;26.08;23.67;;;7.50;99.90;;;;;;4986842;28;20103;-69
2022/04/12 01:15:10;;;;;;;24.70;22.55;;;7.40;99.90;;;;;;4983644;28;20763;-68
2022/04/12 01:17:36;;;;;;;26.40;23.25;;;7.40;99.90;;;;;;4973154;28;20054;-69
2022/04/12 01:20:06;;;;;;;25.75;23.45;;;7.40;99.90;;;;;;4982299;28;20121;-68
2022/04/12 01:22:35;;;;;;;26.02;23.38;;;7.40;99.90;;;;;;4985858;28;20042;-68
2022/04/12 01:25:02;;;;;;;25.80;23.33;;;7.40;99.90;;;;;;4986269;28;20153;-68
2022/04/12 01:27:29;;;;;;;24.52;22.40;;;7.40;99.90;;;;;;4996036;28;20077;-69
2022/04/12 01:29:57;;;;;;;24.83;22.50;;;7.40;99.90;;;;;;4991941;28;20093;-68
2022/04/12 01:32:25;;;;;;;25.42;23.05;;;7.40;99.90;;;;;;5000062;28;20054;-69
2022/04/12 01:34:52;;;;;;;25.23;22.80;;;7.40;99.90;;;;;;4983877;28;20149;-68
2022/04/12 01:37:19;;;;;;;25.05;22.73;;;7.40;99.90;;;;;;4985277;28;20046;-69
2022/04/12 01:39:45;;;;;;;24.83;22.65;;;7.40;99.90;;;;;;4999335;28;20046;-69
2022/04/12 01:42:12;;;;;;;25.67;23.40;;;7.40;99.90;;;;;;4985220;28;20465;-68
2022/04/12 01:44:39;;;;;;;25.38;23.15;;;7.40;99.90;;;;;;4981612;28;20046;-68
2022/04/12 01:47:06;;;;;;;25.40;22.90;;;7.40;99.90;;;;;;4984136;28;20077;-69
2022/04/12 01:49:32;;;;;;;25.42;22.83;;;7.50;99.90;;;;;;4992712;28;20275;-69
2022/04/12 01:52:03;;;;;;;23.67;21.40;;;7.50;99.90;;;;;;4989885;28;20066;-69
2022/04/12 01:54:30;;;;;;;24.10;22.10;;;7.60;99.90;;;;;;4985193;28;20050;-69
2022/04/12 01:56:57;;;;;;;27.00;24.50;;;7.50;99.90;;;;;;4986492;28;20302;-68
2022/04/12 01:59:23;;;;;;;26.13;23.77;;;7.60;99.90;;;;;;4982911;28;20133;-69
2022/04/12 02:01:50;;;;;;;25.10;22.85;;;7.50;99.90;;;;;;4985361;28;20737;-69
2022/04/12 02:04:17;;;;;;;24.88;22.67;;;7.50;99.90;;;;;;4988029;28;20513;-67
2022/04/12 02:06:44;;;;;;;24.48;22.08;;;7.40;99.90;;;;;;4984041;28;20137;-69
2022/04/12 02:09:10;;;;;;;24.50;22.40;;;7.40;99.90;;;;;;4983204;28;20108;-68
2022/04/12 02:11:37;;;;;;;24.40;22.02;;;7.40;99.90;;;;;;4983235;28;20085;-68
2022/04/12 02:14:05;;;;;;;24.85;22.45;;;7.40;99.90;;;;;;4986595;28;20141;-68
2022/04/12 02:16:31;;;;;;;25.25;22.80;;;7.40;99.90;;;;;;4983963;28;20527;-68
2022/04/12 02:18:58;;;;;;;24.83;22.63;;;7.30;99.90;;;;;;4982133;28;20050;-68
2022/04/12 02:21:25;;;;;;;23.85;21.85;;;7.30;99.90;;;;;;4984297;28;20137;-68
2022/04/12 02:23:51;;;;;;;23.58;21.40;;;7.30;99.90;;;;;;4985079;28;20136;-68
2022/04/12 02:26:18;;;;;;;23.90;21.75;;;7.40;99.90;;;;;;5003620;28;20592;-68
2022/04/12 02:28:45;;;;;;;25.23;23.00;;;7.30;99.90;;;;;;4996666;28;20058;-68
2022/04/12 02:31:11;;;;;;;23.75;21.85;;;7.30;99.90;;;;;;4986316;28;20066;-68
2022/04/12 02:33:40;;;;;;;24.95;22.65;;;7.30;99.90;;;;;;4986773;28;20082;-68
2022/04/12 02:36:06;;;;;;;23.25;21.33;;;7.30;99.90;;;;;;4988005;28;20086;-68
2022/04/12 02:38:33;;;;;;;25.30;22.92;;;7.30;99.90;;;;;;4988820;28;20108;-69
2022/04/12 02:41:00;;;;;;;24.40;22.17;;;7.30;99.90;;;;;;4983460;28;20124;-69
2022/04/12 02:43:26;;;;;;;23.88;21.85;;;7.40;99.90;;;;;;4985797;28;20042;-68
2022/04/12 02:45:53;;;;;;;24.85;22.65;;;7.40;99.90;;;;;;4997345;28;20042;-68
2022/04/12 02:48:20;;;;;;;24.70;22.35;;;7.50;99.90;;;;;;4982282;28;20140;-69
2022/04/12 02:50:47;;;;;;;25.67;23.27;;;7.50;99.90;;;;;;5000935;28;20092;-68
2022/04/12 02:53:14;;;;;;;24.95;22.48;;;7.40;99.90;;;;;;4999092;28;20108;-69
2022/04/12 02:55:41;;;;;;;24.63;22.45;;;7.40;99.90;;;;;;4983649;28;20319;-68
2022/04/12 02:58:08;;;;;;;25.23;22.75;;;7.40;99.90;;;;;;4992696;28;20088;-68
2022/04/12 03:00:34;;;;;;;24.65;22.52;;;7.40;99.90;;;;;;4985450;28;20038;-68
2022/04/12 03:03:01;;;;;;;25.38;23.08;;;7.40;99.90;;;;;;4983543;28;20121;-69
2022/04/12 03:05:28;;;;;;;24.17;22.30;;;7.40;99.90;;;;;;4966318;28;20298;-68
2022/04/12 03:07:55;;;;;;;25.08;22.80;;;7.40;99.90;;;;;;4982066;28;20054;-69
2022/04/12 03:10:21;;;;;;;24.30;22.30;;;7.40;99.90;;;;;;4982145;28;20058;-68
2022/04/12 03:12:50;;;;;;;23.95;21.98;;;7.40;99.90;;;;;;4985938;28;20492;-68
2022/04/12 03:15:17;;;;;;;24.42;22.42;;;7.40;99.90;;;;;;4997094;28;20046;-68
2022/04/12 03:17:43;;;;;;;23.48;21.65;;;7.40;99.90;;;;;;4982095;28;20400;-69
2022/04/12 03:20:10;;;;;;;23.92;21.92;;;7.40;99.90;;;;;;4982801;28;20611;-69
2022/04/12 03:22:37;;;;;;;24.92;22.65;;;7.30;99.90;;;;;;4981002;28;20140;-69
2022/04/12 03:25:05;;;;;;;23.75;21.92;;;7.30;99.90;;;;;;4983743;28;20201;-69
2022/04/12 03:27:32;;;;;;;24.70;22.60;;;7.30;99.90;;;;;;4990062;28;20050;-68
2022/04/12 03:29:59;;;;;;;23.30;21.40;;;7.20;99.90;;;;;;4987173;28;20270;-69
2022/04/12 03:32:25;;;;;;;23.98;22.00;;;7.20;99.90;;;;;;4983408;28;20050;-69
2022/04/12 03:34:52;;;;;;;26.20;23.65;;;7.20;99.90;;;;;;4983180;28;20108;-69
2022/04/12 03:37:19;;;;;;;24.58;22.67;;;7.10;99.90;;;;;;4982226;28;20294;-69
2022/04/12 03:39:47;;;;;;;24.60;22.60;;;7.10;99.90;;;;;;4982195;28;20137;-69
2022/04/12 03:42:15;;;;;;;24.42;22.35;;;7.10;99.90;;;;;;4986202;28;20225;-69
2022/04/12 03:44:42;;;;;;;24.17;22.33;;;7.00;99.90;;;;;;4982741;28;20054;-69
2022/04/12 03:47:08;;;;;;;25.25;23.08;;;7.00;99.90;;;;;;4981743;28;20655;-70
2022/04/12 03:49:35;;;;;;;25.30;23.00;;;6.90;99.90;;;;;;4991599;28;20168;-69
2022/04/12 03:52:02;;;;;;;25.08;23.08;;;6.80;99.90;;;;;;4990033;28;20054;-69
2022/04/12 03:54:29;;;;;;;26.15;23.55;;;6.80;99.90;;;;;;4981707;28;20038;-69
2022/04/12 03:56:56;;;;;;;24.98;22.58;;;6.70;99.90;;;;;;4989321;28;20306;-69
2022/04/12 03:59:24;;;;;;;25.83;23.60;;;6.70;99.90;;;;;;4983641;28;20114;-70
2022/04/12 04:01:50;;;;;;;24.73;22.52;;;6.70;99.90;;;;;;4980686;28;20607;-69
2022/04/12 04:04:17;;;;;;;25.15;22.90;;;6.70;99.90;;;;;;4980127;28;20100;-69
2022/04/12 04:06:44;;;;;;;24.52;22.42;;;6.70;99.90;;;;;;4979379;28;20100;-70
2022/04/12 04:09:11;;;;;;;24.42;22.20;;;6.80;99.90;;;;;;4981203;28;20124;-69
2022/04/12 04:11:38;;;;;;;24.73;22.42;;;6.90;99.90;;;;;;4981605;28;20042;-69
2022/04/12 04:14:06;;;;;;;24.25;21.90;;;6.90;99.90;;;;;;4983016;28;20544;-70
2022/04/12 04:16:33;;;;;;;25.55;23.45;;;6.80;99.90;;;;;;4979603;28;20242;-70
2022/04/12 04:19:00;;;;;;;24.17;21.83;;;6.80;99.90;;;;;;4981435;28;20494;-69
2022/04/12 04:21:27;;;;;;;24.92;22.73;;;6.80;99.90;;;;;;4980926;28;20081;-68
2022/04/12 04:23:53;;;;;;;24.48;22.48;;;6.70;99.90;;;;;;4981759;28;20137;-70
2022/04/12 04:26:20;;;;;;;26.40;23.92;;;6.70;99.90;;;;;;4984738;28;20128;-69
2022/04/12 04:28:49;;;;;;;25.35;23.05;;;6.60;99.90;;;;;;4990909;28;20057;-70
2022/04/12 04:31:15;;;;;;;24.08;22.02;;;6.60;99.90;;;;;;4979208;28;20046;-70
2022/04/12 04:33:48;;;;;;;24.92;22.85;;;6.60;99.90;;;;;;4981644;28;20167;-69
2022/04/12 04:36:14;;;;;;;24.10;21.85;;;6.60;99.90;;;;;;4980801;28;20042;-70
2022/04/12 04:38:41;;;;;;;24.63;22.55;;;6.60;99.90;;;;;;4980561;28;20137;-69
2022/04/12 04:41:08;;;;;;;23.52;21.42;;;6.60;99.90;;;;;;4980526;28;20052;-69
2022/04/12 04:43:35;;;;;;;26.45;24.40;;;6.50;99.90;;;;;;4984160;28;20042;-69
2022/04/12 04:46:02;;;;;;;26.48;24.15;;;6.50;99.90;;;;;;4974862;28;20486;-69
2022/04/12 04:48:29;;;;;;;24.08;22.17;;;6.50;99.90;;;;;;4990455;28;20180;-69
2022/04/12 04:50:56;;;;;;;24.60;22.55;;;6.50;99.90;;;;;;4982968;28;20624;-70
2022/04/12 04:53:23;;;;;;;24.17;22.17;;;6.60;99.90;;;;;;4980477;28;20112;-70
2022/04/12 04:55:49;;;;;;;27.52;25.33;;;6.60;99.90;;;;;;4980247;28;20283;-69
2022/04/12 04:58:16;;;;;;;25.92;23.75;;;6.60;99.90;;;;;;4989937;28;20540;-69
2022/04/12 05:00:44;;;;;;;27.67;25.63;;;6.60;99.90;;;;;;4981458;28;20620;-69
2022/04/12 05:03:11;;;;;;;27.08;25.08;;;6.70;99.90;;;;;;4980483;28;20515;-69
2022/04/12 05:05:37;;;;;;;27.58;25.30;;;6.70;99.90;;;;;;4979013;28;20046;-69
2022/04/12 05:08:04;;;;;;;27.23;25.17;;;6.60;99.90;;;;;;4980793;28;20058;-70
2022/04/12 05:10:32;;;;;;;27.38;25.38;;;6.70;99.90;;;;;;4980733;28;20512;-69
2022/04/12 05:13:01;;;;;;;27.60;25.50;;;6.70;99.90;;;;;;4983793;28;20078;-69
2022/04/12 05:15:28;;;;;;;26.25;24.00;;;6.60;99.90;;;;;;4979494;28;20069;-70
2022/04/12 05:18:01;;;;;;;27.15;25.08;;;6.70;99.90;;;;;;4979999;28;20050;-68
2022/04/12 05:20:28;;;;;;;26.55;24.55;;;6.70;99.90;;;;;;4980665;28;20046;-69
2022/04/12 05:22:54;;;;;;;27.05;25.02;;;6.70;99.90;;;;;;4981060;28;20049;-69
2022/04/12 05:25:22;;;;;;;25.35;23.45;;;6.70;99.90;;;;;;4978739;28;20349;-69
2022/04/12 05:27:49;;;;;;;27.48;25.27;;;6.70;99.90;;;;;;4987525;28;20135;-69
2022/04/12 05:30:16;;;;;;;26.73;24.63;;;6.70;99.90;;;;;;4993691;28;20046;-70
2022/04/12 05:32:43;;;;;;;26.25;24.30;;;6.80;99.90;;;;;;4982723;28;20082;-69
2022/04/12 05:35:11;;;;;;;26.77;24.63;;;6.80;99.90;;;;;;4965246;28;20058;-69
2022/04/12 05:37:42;;;;;;;26.83;25.02;;;6.80;99.90;;;;;;4962144;28;20569;-69
2022/04/12 05:40:11;;;;;;;29.27;26.63;;;6.80;99.90;;;;;;4964459;28;20043;-69
2022/04/12 05:42:39;;;;;;;27.17;25.08;;;6.90;99.90;;;;;;4986155;28;20393;-69
2022/04/12 05:45:07;;;;;;;26.10;24.10;;;7.00;99.90;;;;;;4983063;28;20624;-68
2022/04/12 05:47:49;;;;;;;28.02;25.70;;;7.00;99.90;;;;;;4982882;28;20039;-69
2022/04/12 05:50:17;;;;;;;27.38;25.17;;;7.00;99.90;;;;;;4999461;28;20528;-69
2022/04/12 05:52:44;;;;;;;28.85;26.20;;;6.90;99.90;;;;;;4985415;28;20329;-69
2022/04/12 05:55:15;;;;;;;28.98;26.48;;;7.00;99.90;;;;;;4984162;28;20209;-69
2022/04/12 05:57:50;;;;;;;28.20;25.95;;;7.00;99.90;;;;;;4975566;28;20069;-69
2022/04/12 06:00:18;;;;;;;;;;;7.00;99.90;;;;;;4985275;28;20086;-70
2022/04/12 06:02:49;;;;;;;30.15;27.17;;;7.10;99.90;;;;;;4984550;28;20471;-70
2022/04/12 06:05:16;;;;;;;29.73;27.42;;;7.20;99.90;;;;;;4983789;28;20408;-69
2022/04/12 06:07:44;;;;;;;29.10;26.77;;;7.30;99.90;;;;;;4984202;28;20062;-69
2022/04/12 06:10:12;;;;;;;27.85;25.45;;;7.40;99.90;;;;;;4983279;28;20061;-69
2022/04/12 06:12:39;;;;;;;28.42;26.17;;;7.50;99.90;;;;;;4986408;28;20417;-69
2022/04/12 06:15:06;;;;;;;27.35;25.35;;;7.50;99.90;;;;;;4982944;28;20122;-70
2022/04/12 06:17:34;;;;;;;27.88;25.77;;;7.50;99.90;;;;;;4984143;28;20089;-69
2022/04/12 06:20:07;;;;;;;26.33;24.52;;;7.60;99.90;;;;;;4982667;28;20109;-69
2022/04/12 06:22:34;;;;;;;26.98;24.88;;;7.60;99.90;;;;;;4998849;28;20041;-69
2022/04/12 06:25:01;;;;;;;27.30;25.20;;;7.70;99.90;;;;;;5002803;28;20124;-69
2022/04/12 06:27:39;;;;;;;27.05;25.02;;;7.70;99.90;;;;;;4993144;28;20520;-69
2022/04/12 06:30:12;;;;;;;26.60;24.52;;;7.90;99.90;;;;;;4986865;28;20042;-69
2022/04/12 06:32:38;;;;;;;25.88;23.80;;;8.00;99.90;;;;;;4996894;28;20058;-70
2022/04/12 06:35:07;;;;;;;27.45;25.20;;;8.00;99.90;;;;;;4983896;28;20077;-69
2022/04/12 06:37:35;;;;;;;25.70;23.70;;;8.20;99.90;;;;;;4982534;28;20046;-69
2022/04/12 06:40:02;;;;;;;26.65;24.60;;;8.20;99.90;;;;;;4983203;28;20100;-69
2022/04/12 06:42:29;;;;;;;25.73;23.90;;;8.40;99.90;;;;;;4986410;28;20750;-69
2022/04/12 06:44:56;;;;;;;26.35;24.27;;;8.60;99.90;;;;;;5013121;23;20134;-72
2022/04/12 06:47:23;;;;;;;26.48;24.50;;;8.70;99.90;;;;;;4982478;28;20054;-74
2022/04/12 06:49:51;;;;;;;28.17;26.15;;;8.70;99.90;;;;;;4992246;28;20108;-71
2022/04/12 06:52:19;;;;;;;28.65;26.35;;;8.80;99.90;;;;;;4984147;28;20291;-71
2022/04/12 06:54:46;;;;;;;26.98;25.05;;;8.80;99.90;;;;;;4998776;28;20054;-71
2022/04/12 06:57:13;;;;;;;29.30;26.88;;;8.80;99.90;;;;;;5012060;28;20088;-71
2022/04/12 06:59:40;;;;;;;29.20;26.88;;;8.80;99.90;;;;;;4990063;28;20104;-72
2022/04/12 07:02:07;;;;;;;29.25;27.05;;;8.90;99.90;;;;;;4985743;28;20057;-71
2022/04/12 07:04:34;;;;;;;27.23;25.20;;;8.90;99.90;;;;;;5004512;28;20141;-72
2022/04/12 07:07:01;;;;;;;26.92;24.73;;;9.10;99.90;;;;;;4970385;28;20085;-72
2022/04/12 07:09:29;;;;;;;26.75;24.52;;;9.30;99.90;;;;;;4986552;28;20513;-72
2022/04/12 07:11:57;;;;;;;27.60;25.50;;;9.40;99.90;;;;;;5003883;28;20189;-74
2022/04/12 07:14:25;;;;;;;28.55;26.33;;;9.50;99.90;;;;;;5003675;28;20042;-75
2022/04/12 07:16:52;;;;;;;27.90;25.67;;;9.50;99.90;;;;;;5004242;28;20046;-71
2022/04/12 07:19:18;;;;;;;28.80;26.50;;;9.70;99.90;;;;;;5004346;28;20042;-72
2022/04/12 07:21:46;;;;;;;28.15;26.13;;;9.60;99.90;;;;;;4986502;28;20073;-72
2022/04/12 07:24:13;;;;;;;28.67;26.48;;;9.60;99.90;;;;;;5003712;28;20073;-72
2022/04/12 07:26:39;;;;;;;28.02;25.98;;;9.70;99.90;;;;;;5004741;28;20755;-72
2022/04/12 07:29:06;;;;;;;30.13;27.65;;;9.80;99.90;;;;;;4989842;28;20046;-72
2022/04/12 07:31:33;;;;;;;28.92;26.48;;;9.80;99.90;;;;;;5003223;28;20054;-74
2022/04/12 07:34:01;;;;;;;27.73;25.58;;;9.80;99.90;;;;;;5003770;28;20041;-74
2022/04/12 07:36:27;;;;;;;30.45;27.25;;;9.90;99.90;;;;;;5003765;28;20695;-74
2022/04/12 07:38:54;;;;;;;28.23;26.00;;;10.10;99.90;;;;;;4986011;28;20053;-74
2022/04/12 07:41:21;;;;;;;28.40;26.30;;;10.20;99.90;;;;;;5004597;28;20652;-72
2022/04/12 07:43:49;;;;;;;27.50;25.60;;;10.30;99.90;;;;;;5009840;28;20788;-74
2022/04/12 07:46:15;;;;;;;28.58;26.42;;;10.30;99.90;;;;;;4992937;28;20038;-74
2022/04/12 07:48:48;;;;;;;29.13;26.83;;;10.50;99.90;;;;;;5004495;28;20050;-73
2022/04/12 07:51:15;;;;;;;27.98;25.80;;;10.60;99.90;;;;;;4988547;28;20100;-74
2022/04/12 07:53:42;;;;;;;28.10;25.80;;;10.70;99.90;;;;;;5003387;28;20053;-72
2022/04/12 07:56:09;;;;;;;31.25;28.95;;;10.80;99.90;;;;;;5004814;28;20046;-71
2022/04/12 07:58:36;;;;;;;29.48;27.02;;;10.90;99.90;;;;;;5014044;28;20049;-72
2022/04/12 08:01:03;;;;;;;28.70;26.52;;;11.00;99.90;;;;;;5002343;28;20116;-75
2022/04/12 08:03:30;;;;;;;28.98;26.70;;;11.00;99.90;;;;;;5003902;28;20050;-71
2022/04/12 08:05:57;;;;;;;29.92;27.40;;;11.00;99.90;;;;;;4985081;28;20042;-73
2022/04/12 08:08:23;;;;;;;29.50;27.00;;;11.40;99.90;;;;;;4984811;28;20096;-72
2022/04/12 08:10:50;;;;;;;29.08;26.77;;;11.60;99.90;;;;;;5002645;28;20065;-73
2022/04/12 08:13:17;;;;;;;30.10;27.90;;;11.60;99.90;;;;;;5003142;28;20053;-71
2022/04/12 08:15:44;;;;;;;30.17;27.73;;;11.60;99.90;;;;;;5001681;28;20050;-72
2022/04/12 08:18:12;;;;;;;30.42;28.23;;;11.90;99.90;;;;;;5000580;28;20081;-72
2022/04/12 08:20:39;;;;;;;29.65;27.45;;;12.10;99.90;;;;;;4982828;28;20540;-72
2022/04/12 08:23:05;;;;;;;30.45;28.10;;;12.10;99.90;;;;;;4984991;28;20050;-73
2022/04/12 08:25:32;;;;;;;31.30;28.85;;;12.40;99.90;;;;;;5002085;28;20583;-72
2022/04/12 08:27:59;;;;;;;30.77;28.30;;;12.50;99.90;;;;;;4993534;28;20053;-71
2022/04/12 08:30:26;;;;;;;29.80;27.58;;;12.40;99.90;;;;;;5003290;28;20108;-73
2022/04/12 08:32:53;;;;;;;30.85;28.17;;;12.40;99.90;;;;;;4989888;28;20077;-72
2022/04/12 08:35:20;;;;;;;32.90;30.45;;;12.70;99.90;;;;;;4986636;28;20054;-72
2022/04/12 08:37:47;;;;;;;31.50;28.90;;;12.60;99.90;;;;;;5004271;28;20108;-73
2022/04/12 08:40:14;;;;;;;31.92;29.30;;;12.80;99.90;;;;;;5001839;28;20050;-72
2022/04/12 08:42:41;;;;;;;32.55;29.90;;;13.10;99.90;;;;;;5002517;28;20042;-72
2022/04/12 08:45:08;;;;;;;30.90;28.58;;;13.30;99.90;;;;;;4996907;28;20072;-72
2022/04/12 08:47:35;;;;;;;31.15;28.85;;;13.20;99.90;;;;;;5001197;28;20062;-72
2022/04/12 08:50:05;;;;;;;30.08;27.77;;;13.10;99.90;;;;;;5001895;28;20200;-73
2022/04/12 08:52:32;;;;;;;32.03;29.70;;;13.20;99.90;;;;;;5001830;28;20084;-72
2022/04/12 08:54:59;;;;;;;31.48;29.00;;;13.30;99.90;;;;;;4984957;28;20041;-72
2022/04/12 08:57:26;;;;;;;32.03;29.42;;;13.30;99.90;;;;;;5009266;28;20041;-73
2022/04/12 08:59:53;;;;;;;32.20;29.60;;;13.30;99.90;;;;;;4996740;28;20621;-71
2022/04/12 09:02:20;;;;;;;31.52;29.10;;;13.30;99.90;;;;;;4995971;28;20949;-72
2022/04/12 09:04:47;;;;;;;31.95;29.48;;;13.30;99.90;;;;;;5001148;28;20057;-72
2022/04/12 09:07:13;;;;;;;31.52;29.17;;;13.50;99.90;;;;;;4983243;28;20078;-72
2022/04/12 09:09:42;;;;;;;31.77;28.98;;;13.80;99.90;;;;;;5000275;28;20050;-73
2022/04/12 09:12:11;;;;;;;32.95;30.65;;;14.30;99.90;;;;;;5000728;28;20128;-72
2022/04/12 09:14:40;;;;;;;32.03;29.73;;;14.60;99.90;;;;;;5004935;28;20057;-71
2022/04/12 09:17:12;;;;;;;33.58;30.67;;;14.60;99.90;;;;;;5001102;28;20312;-72
2022/04/12 09:19:53;;;;;;;32.75;30.35;;;14.40;99.90;;;;;;5005514;28;20046;-72
2022/04/12 09:22:21;;;;;;;32.72;30.13;;;14.50;99.90;;;;;;5004812;28;20073;-73
2022/04/12 09:24:53;;;;;;;32.05;29.75;;;14.60;99.90;;;;;;4987631;28;20637;-72
2022/04/12 09:27:21;;;;;;;33.45;30.88;;;14.90;99.90;;;;;;5012897;28;20053;-72
2022/04/12 09:29:56;;;;;;;35.10;32.25;;;14.90;99.90;;;;;;5017894;28;20080;-72
2022/04/12 09:32:25;;;;;;;34.80;32.20;;;14.70;99.90;;;;;;4986843;28;20072;-71
2022/04/12 09:34:53;;;;;;;35.63;32.80;;;15.10;99.90;;;;;;5004144;28;20112;-72
2022/04/12 09:37:32;;;;;;;36.13;33.45;;;15.40;99.90;;;;;;4986201;28;20132;-73
2022/04/12 09:39:59;;;;;;;35.65;32.97;;;15.20;99.90;;;;;;5004995;28;20108;-72
2022/04/12 09:42:44;;;;;;;35.45;32.70;;;15.20;99.90;;;;;;4986089;28;20054;-72
2022/04/12 09:45:13;;;;;;;35.47;32.65;;;15.20;99.90;;;;;;5003186;28;20467;-72
2022/04/12 09:47:41;;;;;;;33.83;30.98;;;15.10;99.90;;;;;;5003324;28;20112;-72
2022/04/12 09:50:29;;;;;;;34.17;31.50;;;15.10;99.90;;;;;;5004855;28;20053;-72
2022/04/12 09:53:00;;;;;;;34.83;32.20;;;15.10;99.90;;;;;;5002189;28;20508;-72
2022/04/12 09:55:33;;;;;;;35.00;32.33;;;15.10;99.90;;;;;;5012995;28;20554;-71
2022/04/12 09:58:11;;;;;;;33.88;31.50;;;15.00;99.90;;;;;;4990708;28;20107;-73
2022/04/12 10:00:39;;;;;;;34.05;31.25;;;14.80;99.90;;;;;;4985297;28;20442;-72
2022/04/12 10:03:08;;;;;;;33.53;31.08;;;15.00;99.90;;;;;;4985691;28;20045;-72
2022/04/12 10:05:35;;;;;;;34.22;31.77;;;15.30;99.90;;;;;;5003422;28;20135;-72
2022/04/12 10:08:05;;;;;;;33.67;30.75;;;15.30;99.90;;;;;;5003347;28;20077;-72
2022/04/12 10:10:32;;;;;;;33.63;31.15;;;15.40;99.90;;;;;;5003291;28;20050;-73
2022/04/12 10:12:59;;;;;;;34.45;31.92;;;15.40;99.90;;;;;;4986037;28;20340;-72
2022/04/12 10:15:28;;;;;;;34.20;31.35;;;15.10;99.90;;;;;;4999162;28;20049;-73
2022/04/12 10:17:55;;;;;;;34.60;31.85;;;15.20;99.90;;;;;;5002803;28;20045;-72
2022/04/12 10:20:23;;;;;;;33.38;30.60;;;15.80;99.90;;;;;;5003108;28;20100;-73
2022/04/12 10:22:50;;;;;;;36.00;33.42;;;16.10;99.90;;;;;;5003971;28;20580;-72
2022/04/12 10:25:24;;;;;;;34.70;32.25;;;16.10;99.90;;;;;;4985861;28;20140;-73
2022/04/12 10:27:59;;;;;;;37.00;34.00;;;16.50;99.90;;;;;;5011197;28;20084;-72
2022/04/12 10:30:26;;;;;;;;;;;16.20;99.90;;;;;;4991366;28;20037;-72
2022/04/12 10:33:18;;;;;;;36.50;33.80;;;16.00;99.90;;;;;;5003381;28;19960;-73
2022/04/12 10:35:44;;;;;;;38.45;35.55;;;16.30;99.90;;;;;;4987912;28;20045;-72
2022/04/12 10:38:12;;;;;;;39.08;36.10;;;16.70;99.90;;;;;;4986815;28;20056;-72
2022/04/12 10:40:48;;;;;;;37.38;34.33;;;16.60;99.90;;;;;;4985559;28;20045;-72
2022/04/12 10:43:30;;;;;;;37.10;34.30;;;16.80;99.90;;;;;;5003077;28;20046;-72
2022/04/12 10:45:58;;;;;;;39.60;36.50;;;17.20;99.90;;;;;;5002743;28;20042;-72
2022/04/12 10:48:28;;;;;;;39.13;35.90;;;17.00;99.90;;;;;;4968451;28;20151;-72
2022/04/12 10:50:58;;;;;;;36.40;33.53;;;17.30;99.90;;;;;;5002710;28;20058;-72
2022/04/12 10:53:40;;;;;;;35.53;32.88;;;17.30;99.90;;;;;;4970061;28;20081;-72
2022/04/12 10:56:14;;;;;;;37.53;34.40;;;17.00;99.90;;;;;;5006719;28;20049;-72
2022/04/12 10:58:42;;;;;;;38.42;34.97;;;17.10;99.90;;;;;;4993540;28;20038;-72
2022/04/12 11:01:12;;;;;;;36.33;33.53;;;16.90;99.90;;;;;;5002485;28;20038;-72
2022/04/12 11:03:43;;;;;;;37.58;34.50;;;16.60;99.90;;;;;;4985093;28;20132;-73
2022/04/12 11:06:13;;;;;;;37.03;33.90;;;16.50;99.90;;;;;;4984318;28;20260;-71
2022/04/12 11:08:43;;;;;;;33.15;30.63;;;16.40;99.90;;;;;;5002359;28;20513;-72
2022/04/12 11:11:10;;;;;;;38.72;35.30;;;16.50;99.90;;;;;;4983679;28;20420;-71
2022/04/12 11:13:37;;;;;;;36.00;33.00;;;16.80;99.90;;;;;;5003204;28;20046;-74
2022/04/12 11:16:07;;;;;;;37.17;34.28;;;16.90;99.90;;;;;;5002071;28;20049;-74
2022/04/12 11:18:52;;;;;;;37.28;34.22;;;16.80;99.90;;;;;;4989531;28;20193;-73
2022/04/12 11:21:21;;;;;;;36.50;33.63;;;17.20;99.90;;;;;;5002266;28;20560;-73
2022/04/12 11:24:04;;;;;;;36.53;32.88;;;17.70;99.90;;;;;;5003219;28;20061;-74
2022/04/12 11:26:46;;;;;;;36.25;33.17;;;17.80;99.90;;;;;;5007492;28;20087;-72
2022/04/12 11:29:26;;;;;;;36.42;32.97;;;17.80;99.90;;;;;;4990341;28;20073;-74
2022/04/12 11:31:54;;;;;;;37.72;34.83;;;18.00;99.90;;;;;;5000563;28;20137;-73
2022/04/12 11:34:23;;;;;;;35.53;32.92;;;18.20;99.90;;;;;;4984718;28;20057;-73
2022/04/12 11:36:51;;;;;;;35.25;32.45;;;17.90;99.90;;;;;;5000055;28;20057;-74
2022/04/12 11:39:19;;;;;;;40.15;36.85;;;17.80;99.90;;;;;;4984570;28;20054;-74
2022/04/12 11:41:46;;;;;;;37.42;34.28;;;18.00;99.90;;;;;;5002404;28;20115;-75
2022/04/12 11:44:13;;;;;;;38.03;35.13;;;18.40;99.90;;;;;;5001057;28;20502;-73
2022/04/12 11:46:40;;;;;;;37.60;34.50;;;18.60;99.90;;;;;;5001756;28;20121;-74
2022/04/12 11:49:10;;;;;;;36.78;33.67;;;18.80;99.90;;;;;;4994692;28;20304;-73
2022/04/12 11:51:48;;;;;;;36.72;33.60;;;18.80;99.90;;;;;;5003572;28;20046;-75
2022/04/12 11:54:26;;;;;;;36.08;33.28;;;18.60;99.90;;;;;;5003228;28;20543;-74
2022/04/12 11:56:58;;;;;;;37.58;34.65;;;18.70;99.90;;;;;;5005832;28;20573;-75
2022/04/12 11:59:25;;;;;;;36.50;33.50;;;18.80;99.90;;;;;;5014309;28;20045;-75
2022/04/12 12:01:53;;;;;;;36.78;33.47;;;18.80;99.90;;;;;;4990257;28;20041;-74
2022/04/12 12:04:21;;;;;;;38.33;35.03;;;18.60;99.90;;;;;;4983794;28;20116;-74
2022/04/12 12:06:56;;;;;;;37.00;33.80;;;18.50;99.90;;;;;;4967640;28;20034;-74
2022/04/12 12:09:23;;;;;;;35.72;32.80;;;18.90;99.90;;;;;;4980954;28;20109;-74
2022/04/12 12:11:50;;;;;;;36.05;33.17;;;19.10;99.90;;;;;;4981597;28;20046;-73
2022/04/12 12:14:19;;;;;;;36.08;33.20;;;19.10;99.90;;;;;;4998379;28;20180;-73
2022/04/12 12:17:06;;;;;;;35.33;32.63;;;19.30;99.90;;;;;;4987463;28;20285;-74
2022/04/12 12:19:33;;;;;;;37.08;34.05;;;19.20;99.90;;;;;;4999096;28;20050;-73
2022/04/12 12:22:02;;;;;;;36.45;33.58;;;19.20;99.90;;;;;;4955851;28;20081;-74
2022/04/12 12:24:29;;;;;;;35.13;32.17;;;19.10;99.90;;;;;;4964173;28;20073;-73
2022/04/12 12:26:56;;;;;;;34.08;31.33;;;18.80;99.90;;;;;;5002910;28;20098;-74
2022/04/12 12:29:26;;;;;;;34.55;32.03;;;19.00;99.90;;;;;;4984309;28;20054;-74
2022/04/12 12:31:56;;;;;;;33.65;30.92;;;19.00;99.90;;;;;;4966459;28;20057;-74
2022/04/12 12:34:31;;;;;;;36.33;33.42;;;19.00;99.40;;;;;;4999399;28;20049;-73
2022/04/12 12:36:58;;;;;;;33.40;30.85;;;18.80;99.80;;;;;;4997014;28;20253;-73
2022/04/12 12:39:28;;;;;;;33.83;31.10;;;18.40;99.90;;;;;;4983210;28;20574;-73
2022/04/12 12:41:58;;;;;;;36.50;33.70;;;18.40;99.60;;;;;;5002914;28;20041;-73